sensor_id;sensor_type;location;lat;lon;timestamp;pressure;altitude;pressure_sealevel;temperature;humidity
44309;BME280;30022;55.846;37.340;2022-10-31T00:00:47;46869.00;;;-143.51;21.29
44309;BME280;30022;55.846;37.340;2022-10-31T00:03:13;46890.72;;;-143.51;21.56
44309;BME280;30022;55.846;37.340;2022-10-31T00:05:45;46888.75;;;-143.51;21.25
44309;BME280;30022;55.846;37.340;2022-10-31T00:08:11;46900.59;;;-143.51;21.49
44309;BME280;30022;55.846;37.340;2022-10-31T00:10:38;46882.84;;;-143.51;21.40
44309;BME280;30022;55.846;37.340;2022-10-31T00:13:05;46912.47;;;-143.51;21.87
44309;BME280;30022;55.846;37.340;2022-10-31T00:15:32;46878.88;;;-143.51;21.87
44309;BME280;30022;55.846;37.340;2022-10-31T00:17:58;46861.09;;;-143.51;21.36
44309;BME280;30022;55.846;37.340;2022-10-31T00:20:23;46880.84;;;-143.51;21.69
44309;BME280;30022;55.846;37.340;2022-10-31T00:22:49;46900.59;;;-143.51;21.59
44309;BME280;30022;55.846;37.340;2022-10-31T00:25:15;46849.25;;;-143.51;21.60
44309;BME280;30022;55.846;37.340;2022-10-31T00:27:40;46890.72;;;-143.51;21.46
44309;BME280;30022;55.846;37.340;2022-10-31T00:30:06;46867.03;;;-143.51;21.44
44309;BME280;30022;55.846;37.340;2022-10-31T00:32:32;46894.69;;;-143.51;21.46
44309;BME280;30022;55.846;37.340;2022-10-31T00:34:57;46874.94;;;-143.51;21.37
44309;BME280;30022;55.846;37.340;2022-10-31T00:37:26;46861.09;;;-143.51;21.49
44309;BME280;30022;55.846;37.340;2022-10-31T00:39:52;46880.84;;;-143.51;21.57
44309;BME280;30022;55.846;37.340;2022-10-31T00:42:17;46880.84;;;-143.51;21.41
44309;BME280;30022;55.846;37.340;2022-10-31T00:44:43;46847.28;;;-143.51;21.41
44309;BME280;30022;55.846;37.340;2022-10-31T00:47:17;46882.84;;;-143.51;21.67
44309;BME280;30022;55.846;37.340;2022-10-31T00:49:44;46916.41;;;-143.51;21.57
44309;BME280;30022;55.846;37.340;2022-10-31T00:52:09;46908.50;;;-143.51;21.51
44309;BME280;30022;55.846;37.340;2022-10-31T00:54:36;46878.88;;;-143.51;21.52
44309;BME280;30022;55.846;37.340;2022-10-31T00:57:01;46823.59;;;-143.51;21.36
44309;BME280;30022;55.846;37.340;2022-10-31T00:59:27;46825.56;;;-143.51;21.50
44309;BME280;30022;55.846;37.340;2022-10-31T01:01:53;46855.19;;;-143.51;21.95
44309;BME280;30022;55.846;37.340;2022-10-31T01:04:22;46819.63;;;-143.51;21.68
44309;BME280;30022;55.846;37.340;2022-10-31T01:06:48;46835.44;;;-143.51;22.21
44309;BME280;30022;55.846;37.340;2022-10-31T01:09:15;46829.50;;;-143.51;22.46
44309;BME280;30022;55.846;37.340;2022-10-31T01:11:41;46839.38;;;-143.51;22.25
44309;BME280;30022;55.846;37.340;2022-10-31T01:14:08;46839.38;;;-143.51;22.79
44309;BME280;30022;55.846;37.340;2022-10-31T01:16:33;46870.97;;;-143.51;22.53
44309;BME280;30022;55.846;37.340;2022-10-31T01:18:59;46821.59;;;-143.51;23.02
44309;BME280;30022;55.846;37.340;2022-10-31T01:21:27;46839.38;;;-143.51;23.09
44309;BME280;30022;55.846;37.340;2022-10-31T01:23:56;46829.50;;;-143.51;23.63
44309;BME280;30022;55.846;37.340;2022-10-31T01:26:26;46825.56;;;-143.51;23.41
44309;BME280;30022;55.846;37.340;2022-10-31T01:28:58;46845.31;;;-143.51;24.26
44309;BME280;30022;55.846;37.340;2022-10-31T01:31:32;46809.75;;;-143.51;24.44
44309;BME280;30022;55.846;37.340;2022-10-31T01:34:03;46811.72;;;-143.51;24.83
44309;BME280;30022;55.846;37.340;2022-10-31T01:36:33;46839.38;;;-143.51;24.60
44309;BME280;30022;55.846;37.340;2022-10-31T01:39:05;46819.63;;;-143.51;24.38
44309;BME280;30022;55.846;37.340;2022-10-31T01:41:34;46843.34;;;-143.51;24.61
44309;BME280;30022;55.846;37.340;2022-10-31T01:51:50;46827.53;;;-143.51;24.66
44309;BME280;30022;55.846;37.340;2022-10-31T01:54:18;46801.84;;;-143.51;24.85
44309;BME280;30022;55.846;37.340;2022-10-31T01:56:48;46819.63;;;-143.51;24.77
44309;BME280;30022;55.846;37.340;2022-10-31T01:59:15;46791.97;;;-143.51;25.00
44309;BME280;30022;55.846;37.340;2022-10-31T02:01:42;46827.53;;;-143.51;24.81
44309;BME280;30022;55.846;37.340;2022-10-31T02:04:08;46827.53;;;-143.51;24.92
44309;BME280;30022;55.846;37.340;2022-10-31T02:06:45;46795.94;;;-143.51;25.13
44309;BME280;30022;55.846;37.340;2022-10-31T02:09:12;46843.34;;;-143.51;25.04
44309;BME280;30022;55.846;37.340;2022-10-31T02:11:38;46859.13;;;-143.51;24.33
44309;BME280;30022;55.846;37.340;2022-10-31T02:14:04;46786.06;;;-143.51;24.45
44309;BME280;30022;55.846;37.340;2022-10-31T02:16:50;46870.97;;;-143.51;24.87
44309;BME280;30022;55.846;37.340;2022-10-31T02:19:18;46813.72;;;-143.51;24.96
44309;BME280;30022;55.846;37.340;2022-10-31T02:24:21;46857.16;;;-143.51;24.94
44309;BME280;30022;55.846;37.340;2022-10-31T02:29:37;46843.34;;;-143.51;24.56
44309;BME280;30022;55.846;37.340;2022-10-31T02:34:51;46892.72;;;-143.51;24.10
44309;BME280;30022;55.846;37.340;2022-10-31T02:37:20;46898.63;;;-143.51;24.34
44309;BME280;30022;55.846;37.340;2022-10-31T02:40:03;46900.59;;;-143.51;24.16
44309;BME280;30022;55.846;37.340;2022-10-31T02:43:02;46876.91;;;-143.51;23.88
44309;BME280;30022;55.846;37.340;2022-10-31T02:45:31;46949.97;;;-143.51;24.05
44309;BME280;30022;55.846;37.340;2022-10-31T02:48:03;46906.53;;;-143.51;24.22
44309;BME280;30022;55.846;37.340;2022-10-31T02:50:39;46934.19;;;-143.51;23.86
44309;BME280;30022;55.846;37.340;2022-10-31T02:53:08;46926.28;;;-143.51;23.95
44309;BME280;30022;55.846;37.340;2022-10-31T02:58:08;46938.13;;;-143.51;23.74
44309;BME280;30022;55.846;37.340;2022-10-31T03:00:51;46916.41;;;-143.51;23.63
44309;BME280;30022;55.846;37.340;2022-10-31T03:06:02;46949.97;;;-143.51;23.63
44309;BME280;30022;55.846;37.340;2022-10-31T03:08:43;46924.31;;;-143.51;23.60
44309;BME280;30022;55.846;37.340;2022-10-31T03:11:15;46930.22;;;-143.51;23.62
44309;BME280;30022;55.846;37.340;2022-10-31T03:13:49;46951.97;;;-143.51;23.07
44309;BME280;30022;55.846;37.340;2022-10-31T03:16:26;46904.56;;;-143.51;23.46
44309;BME280;30022;55.846;37.340;2022-10-31T03:18:58;46902.59;;;-143.51;23.45
44309;BME280;30022;55.846;37.340;2022-10-31T03:21:33;46928.25;;;-143.51;23.69
44309;BME280;30022;55.846;37.340;2022-10-31T03:24:05;46938.13;;;-143.51;23.71
44309;BME280;30022;55.846;37.340;2022-10-31T03:26:35;46894.69;;;-143.51;23.11
44309;BME280;30022;55.846;37.340;2022-10-31T03:29:06;46902.59;;;-143.51;23.22
44309;BME280;30022;55.846;37.340;2022-10-31T03:31:40;46900.59;;;-143.51;23.11
44309;BME280;30022;55.846;37.340;2022-10-31T03:34:16;46936.16;;;-143.51;23.40
44309;BME280;30022;55.846;37.340;2022-10-31T03:36:43;46926.28;;;-143.51;23.59
44309;BME280;30022;55.846;37.340;2022-10-31T03:39:11;46892.72;;;-143.51;23.40
44309;BME280;30022;55.846;37.340;2022-10-31T03:41:39;46920.34;;;-143.51;23.84
44309;BME280;30022;55.846;37.340;2022-10-31T03:44:07;46878.88;;;-143.51;23.15
44309;BME280;30022;55.846;37.340;2022-10-31T03:46:37;46894.69;;;-143.51;23.42
44309;BME280;30022;55.846;37.340;2022-10-31T03:49:03;46953.94;;;-143.51;23.27
44309;BME280;30022;55.846;37.340;2022-10-31T03:51:35;46948.00;;;-143.51;22.95
44309;BME280;30022;55.846;37.340;2022-10-31T03:54:08;46928.25;;;-143.51;23.03
44309;BME280;30022;55.846;37.340;2022-10-31T03:56:39;46930.22;;;-143.51;22.85
44309;BME280;30022;55.846;37.340;2022-10-31T04:01:39;46938.13;;;-143.51;22.77
44309;BME280;30022;55.846;37.340;2022-10-31T04:04:13;46930.22;;;-143.51;22.92
44309;BME280;30022;55.846;37.340;2022-10-31T04:06:40;46918.38;;;-143.51;22.87
44309;BME280;30022;55.846;37.340;2022-10-31T04:09:07;46906.53;;;-143.51;22.95
44309;BME280;30022;55.846;37.340;2022-10-31T04:11:40;46876.91;;;-143.51;22.90
44309;BME280;30022;55.846;37.340;2022-10-31T04:14:34;46874.94;;;-143.51;22.86
44309;BME280;30022;55.846;37.340;2022-10-31T04:17:01;46922.34;;;-143.51;22.77
44309;BME280;30022;55.846;37.340;2022-10-31T04:19:42;46886.78;;;-143.51;22.65
44309;BME280;30022;55.846;37.340;2022-10-31T04:22:07;46957.88;;;-143.51;22.98
44309;BME280;30022;55.846;37.340;2022-10-31T04:24:35;46922.34;;;-143.51;22.67
44309;BME280;30022;55.846;37.340;2022-10-31T04:27:02;46886.78;;;-143.51;22.67
44309;BME280;30022;55.846;37.340;2022-10-31T04:29:28;46912.47;;;-143.51;22.71
44309;BME280;30022;55.846;37.340;2022-10-31T04:31:54;46910.47;;;-143.51;22.63
44309;BME280;30022;55.846;37.340;2022-10-31T04:34:21;46910.47;;;-143.51;22.79
44309;BME280;30022;55.846;37.340;2022-10-31T04:36:46;46922.34;;;-143.51;22.94
44309;BME280;30022;55.846;37.340;2022-10-31T04:39:15;46920.34;;;-143.51;22.49
44309;BME280;30022;55.846;37.340;2022-10-31T04:42:05;46912.47;;;-143.51;22.57
44309;BME280;30022;55.846;37.340;2022-10-31T04:44:31;46906.53;;;-143.51;22.40
44309;BME280;30022;55.846;37.340;2022-10-31T04:46:59;46914.44;;;-143.51;22.42
44309;BME280;30022;55.846;37.340;2022-10-31T04:49:25;46938.13;;;-143.51;22.54
44309;BME280;30022;55.846;37.340;2022-10-31T04:51:51;46906.53;;;-143.51;22.73
44309;BME280;30022;55.846;37.340;2022-10-31T04:54:17;46904.56;;;-143.51;22.58
44309;BME280;30022;55.846;37.340;2022-10-31T04:57:01;46918.38;;;-143.51;22.61
44309;BME280;30022;55.846;37.340;2022-10-31T04:59:28;46882.84;;;-143.51;22.64
44309;BME280;30022;55.846;37.340;2022-10-31T05:01:53;46886.78;;;-143.51;22.53
44309;BME280;30022;55.846;37.340;2022-10-31T05:04:43;46882.84;;;-143.51;23.06
44309;BME280;30022;55.846;37.340;2022-10-31T05:07:16;46863.09;;;-143.51;22.77
44309;BME280;30022;55.846;37.340;2022-10-31T05:09:46;46892.72;;;-143.51;22.70
44309;BME280;30022;55.846;37.340;2022-10-31T05:12:12;46839.38;;;-143.51;22.74
44309;BME280;30022;55.846;37.340;2022-10-31T05:14:57;46863.09;;;-143.51;22.80
44309;BME280;30022;55.846;37.340;2022-10-31T05:17:42;46886.78;;;-143.51;22.56
44309;BME280;30022;55.846;37.340;2022-10-31T05:20:37;46867.03;;;-143.51;22.94
44309;BME280;30022;55.846;37.340;2022-10-31T05:23:32;46855.19;;;-143.51;22.77
44309;BME280;30022;55.846;37.340;2022-10-31T05:25:58;46880.84;;;-143.51;22.84
44309;BME280;30022;55.846;37.340;2022-10-31T05:28:24;46892.72;;;-143.51;22.63
44309;BME280;30022;55.846;37.340;2022-10-31T05:30:49;46910.47;;;-143.51;22.74
44309;BME280;30022;55.846;37.340;2022-10-31T05:33:23;46870.97;;;-143.51;22.63
44309;BME280;30022;55.846;37.340;2022-10-31T05:36:08;46922.34;;;-143.51;22.60
44309;BME280;30022;55.846;37.340;2022-10-31T05:38:53;46886.78;;;-143.51;22.51
44309;BME280;30022;55.846;37.340;2022-10-31T05:41:23;46898.63;;;-143.51;22.66
44309;BME280;30022;55.846;37.340;2022-10-31T05:43:49;46886.78;;;-143.51;22.90
44309;BME280;30022;55.846;37.340;2022-10-31T05:46:19;46874.94;;;-143.51;22.86
44309;BME280;30022;55.846;37.340;2022-10-31T05:49:08;46859.13;;;-143.51;22.79
44309;BME280;30022;55.846;37.340;2022-10-31T05:51:52;46908.50;;;-143.51;22.79
44309;BME280;30022;55.846;37.340;2022-10-31T05:54:19;46896.66;;;-143.51;22.84
44309;BME280;30022;55.846;37.340;2022-10-31T05:56:45;46898.63;;;-143.51;22.95
44309;BME280;30022;55.846;37.340;2022-10-31T05:59:11;46880.84;;;-143.51;23.00
44309;BME280;30022;55.846;37.340;2022-10-31T06:01:38;46863.09;;;-143.51;23.35
44309;BME280;30022;55.846;37.340;2022-10-31T06:04:11;46863.09;;;-143.51;22.88
44309;BME280;30022;55.846;37.340;2022-10-31T06:06:38;46934.19;;;-143.51;23.08
44309;BME280;30022;55.846;37.340;2022-10-31T06:09:06;46906.53;;;-143.51;23.00
44309;BME280;30022;55.846;37.340;2022-10-31T06:11:34;46886.78;;;-143.51;23.13
44309;BME280;30022;55.846;37.340;2022-10-31T06:14:03;46870.97;;;-143.51;22.94
44309;BME280;30022;55.846;37.340;2022-10-31T06:16:35;46912.47;;;-143.51;23.09
44309;BME280;30022;55.846;37.340;2022-10-31T06:19:18;46853.22;;;-143.51;23.35
44309;BME280;30022;55.846;37.340;2022-10-31T06:21:44;46894.69;;;-143.51;23.25
44309;BME280;30022;55.846;37.340;2022-10-31T06:24:10;46865.06;;;-143.51;23.38
44309;BME280;30022;55.846;37.340;2022-10-31T06:26:54;46825.56;;;-143.51;23.67
44309;BME280;30022;55.846;37.340;2022-10-31T06:29:20;46872.97;;;-143.51;23.63
44309;BME280;30022;55.846;37.340;2022-10-31T06:32:11;46880.84;;;-143.51;23.70
44309;BME280;30022;55.846;37.340;2022-10-31T06:34:41;46863.09;;;-143.51;23.87
44309;BME280;30022;55.846;37.340;2022-10-31T06:37:08;46847.28;;;-143.51;23.60
44309;BME280;30022;55.846;37.340;2022-10-31T06:39:34;46867.03;;;-143.51;23.22
44309;BME280;30022;55.846;37.340;2022-10-31T06:42:02;46890.72;;;-143.51;23.65
44309;BME280;30022;55.846;37.340;2022-10-31T06:44:35;46886.78;;;-143.51;23.47
44309;BME280;30022;55.846;37.340;2022-10-31T06:47:01;46884.81;;;-143.51;23.69
44309;BME280;30022;55.846;37.340;2022-10-31T06:49:52;46827.53;;;-143.51;23.83
44309;BME280;30022;55.846;37.340;2022-10-31T06:52:27;46882.84;;;-143.51;23.62
44309;BME280;30022;55.846;37.340;2022-10-31T06:55:01;46859.13;;;-143.51;24.01
44309;BME280;30022;55.846;37.340;2022-10-31T06:57:28;46906.53;;;-143.51;23.88
44309;BME280;30022;55.846;37.340;2022-10-31T06:59:58;46855.19;;;-143.51;24.20
44309;BME280;30022;55.846;37.340;2022-10-31T07:02:41;46857.16;;;-143.51;24.60
44309;BME280;30022;55.846;37.340;2022-10-31T07:05:07;46910.47;;;-143.51;23.95
44309;BME280;30022;55.846;37.340;2022-10-31T07:07:33;46896.66;;;-143.51;23.96
44309;BME280;30022;55.846;37.340;2022-10-31T07:09:59;46888.75;;;-143.51;24.15
44309;BME280;30022;55.846;37.340;2022-10-31T07:12:42;46867.03;;;-143.51;24.40
44309;BME280;30022;55.846;37.340;2022-10-31T07:15:08;46835.44;;;-143.51;24.75
44309;BME280;30022;55.846;37.340;2022-10-31T07:17:41;46799.88;;;-143.51;25.04
44309;BME280;30022;55.846;37.340;2022-10-31T07:20:09;46786.06;;;-143.51;25.15
44309;BME280;30022;55.846;37.340;2022-10-31T07:22:36;46839.38;;;-143.51;24.59
44309;BME280;30022;55.846;37.340;2022-10-31T07:25:04;46867.03;;;-143.51;24.60
44309;BME280;30022;55.846;37.340;2022-10-31T07:27:35;46803.84;;;-143.51;24.93
44309;BME280;30022;55.846;37.340;2022-10-31T07:30:00;46790.00;;;-143.51;25.44
44309;BME280;30022;55.846;37.340;2022-10-31T07:32:36;46795.94;;;-143.51;25.31
44309;BME280;30022;55.846;37.340;2022-10-31T07:35:02;46825.56;;;-143.51;24.73
44309;BME280;30022;55.846;37.340;2022-10-31T07:37:42;46811.72;;;-143.51;25.37
44309;BME280;30022;55.846;37.340;2022-10-31T07:40:07;46835.44;;;-143.51;24.88
44309;BME280;30022;55.846;37.340;2022-10-31T07:42:34;46839.38;;;-143.51;24.85
44309;BME280;30022;55.846;37.340;2022-10-31T07:45:00;46813.72;;;-143.51;25.27
44309;BME280;30022;55.846;37.340;2022-10-31T07:47:54;46835.44;;;-143.51;24.97
44309;BME280;30022;55.846;37.340;2022-10-31T07:50:56;46837.41;;;-143.51;24.62
44309;BME280;30022;55.846;37.340;2022-10-31T07:53:40;46859.13;;;-143.51;25.09
44309;BME280;30022;55.846;37.340;2022-10-31T07:56:15;46813.72;;;-143.51;25.47
44309;BME280;30022;55.846;37.340;2022-10-31T07:58:41;46849.25;;;-143.51;25.30
44309;BME280;30022;55.846;37.340;2022-10-31T08:01:07;46807.78;;;-143.51;24.60
44309;BME280;30022;55.846;37.340;2022-10-31T08:03:41;46849.25;;;-143.51;24.86
44309;BME280;30022;55.846;37.340;2022-10-31T08:06:25;46825.56;;;-143.51;25.08
44309;BME280;30022;55.846;37.340;2022-10-31T08:09:17;46870.97;;;-143.51;24.80
44309;BME280;30022;55.846;37.340;2022-10-31T08:11:43;46898.63;;;-143.51;24.67
44309;BME280;30022;55.846;37.340;2022-10-31T08:14:09;46906.53;;;-143.51;24.46
44309;BME280;30022;55.846;37.340;2022-10-31T08:16:35;46878.88;;;-143.51;24.35
44309;BME280;30022;55.846;37.340;2022-10-31T08:19:03;46882.84;;;-143.51;24.37
44309;BME280;30022;55.846;37.340;2022-10-31T08:21:36;46914.44;;;-143.51;24.30
44309;BME280;30022;55.846;37.340;2022-10-31T08:24:02;46904.56;;;-143.51;24.19
44309;BME280;30022;55.846;37.340;2022-10-31T08:26:28;46874.94;;;-143.51;24.39
44309;BME280;30022;55.846;37.340;2022-10-31T08:28:54;46906.53;;;-143.51;24.22
44309;BME280;30022;55.846;37.340;2022-10-31T08:31:21;46948.00;;;-143.51;24.04
44309;BME280;30022;55.846;37.340;2022-10-31T08:33:48;46973.69;;;-143.51;23.75
44309;BME280;30022;55.846;37.340;2022-10-31T08:36:19;46914.44;;;-143.51;24.16
44309;BME280;30022;55.846;37.340;2022-10-31T08:39:10;46924.31;;;-143.51;23.75
44309;BME280;30022;55.846;37.340;2022-10-31T08:41:39;46928.25;;;-143.51;24.10
44309;BME280;30022;55.846;37.340;2022-10-31T08:44:09;46892.72;;;-143.51;24.13
44309;BME280;30022;55.846;37.340;2022-10-31T08:46:36;46944.06;;;-143.51;24.01
44309;BME280;30022;55.846;37.340;2022-10-31T08:49:02;46898.63;;;-143.51;24.02
44309;BME280;30022;55.846;37.340;2022-10-31T08:51:29;46896.66;;;-143.51;24.05
44309;BME280;30022;55.846;37.340;2022-10-31T08:53:55;46900.59;;;-143.51;24.09
44309;BME280;30022;55.846;37.340;2022-10-31T08:56:43;46910.47;;;-143.51;23.90
44309;BME280;30022;55.846;37.340;2022-10-31T08:59:29;46894.69;;;-143.51;23.59
44309;BME280;30022;55.846;37.340;2022-10-31T09:02:14;46985.53;;;-143.51;23.44
44309;BME280;30022;55.846;37.340;2022-10-31T09:04:41;46922.34;;;-143.51;23.54
44309;BME280;30022;55.846;37.340;2022-10-31T09:07:18;46936.16;;;-143.51;23.76
44309;BME280;30022;55.846;37.340;2022-10-31T09:09:55;46914.44;;;-143.51;23.60
44309;BME280;30022;55.846;37.340;2022-10-31T09:12:21;46892.72;;;-143.51;23.30
44309;BME280;30022;55.846;37.340;2022-10-31T09:15:12;46869.00;;;-143.51;23.57
44309;BME280;30022;55.846;37.340;2022-10-31T09:17:46;46924.31;;;-143.51;23.35
44309;BME280;30022;55.846;37.340;2022-10-31T09:20:22;46938.13;;;-143.51;23.41
44309;BME280;30022;55.846;37.340;2022-10-31T09:22:54;46928.25;;;-143.51;23.28
44309;BME280;30022;55.846;37.340;2022-10-31T09:25:21;46948.00;;;-143.51;23.15
44309;BME280;30022;55.846;37.340;2022-10-31T09:27:59;46957.88;;;-143.51;23.23
44309;BME280;30022;55.846;37.340;2022-10-31T09:30:26;46930.22;;;-143.51;23.44
44309;BME280;30022;55.846;37.340;2022-10-31T09:32:56;46944.06;;;-143.51;23.63
44309;BME280;30022;55.846;37.340;2022-10-31T09:35:31;46942.09;;;-143.51;23.54
44309;BME280;30022;55.846;37.340;2022-10-31T09:37:57;46999.34;;;-143.51;23.60
44309;BME280;30022;55.846;37.340;2022-10-31T09:40:27;46959.84;;;-143.51;23.46
44309;BME280;30022;55.846;37.340;2022-10-31T09:51:33;46951.97;;;-143.51;23.41
44309;BME280;30022;55.846;37.340;2022-10-31T10:08:34;46878.88;;;-143.51;25.36
44309;BME280;30022;55.846;37.340;2022-10-31T10:24:46;46932.22;;;-143.51;24.38
44309;BME280;30022;55.846;37.340;2022-10-31T10:32:40;46896.66;;;-143.51;24.65
44309;BME280;30022;55.846;37.340;2022-10-31T10:37:39;46946.03;;;-143.51;23.97
44309;BME280;30022;55.846;37.340;2022-10-31T10:40:16;46985.53;;;-143.51;24.04
44309;BME280;30022;55.846;37.340;2022-10-31T10:42:50;46979.59;;;-143.51;23.96
44309;BME280;30022;55.846;37.340;2022-10-31T10:45:38;46940.09;;;-143.51;23.96
44309;BME280;30022;55.846;37.340;2022-10-31T10:50:51;46973.69;;;-143.51;23.78
44309;BME280;30022;55.846;37.340;2022-10-31T10:56:04;47007.25;;;-143.51;23.52
44309;BME280;30022;55.846;37.340;2022-10-31T10:58:34;46979.59;;;-143.51;23.61
44309;BME280;30022;55.846;37.340;2022-10-31T11:01:08;46959.84;;;-143.51;23.43
44309;BME280;30022;55.846;37.340;2022-10-31T11:03:35;46997.38;;;-143.51;23.54
44309;BME280;30022;55.846;37.340;2022-10-31T11:06:01;47011.22;;;-143.51;23.21
44309;BME280;30022;55.846;37.340;2022-10-31T11:08:35;46949.97;;;-143.51;23.63
44309;BME280;30022;55.846;37.340;2022-10-31T11:22:30;46967.75;;;-143.51;23.86
44309;BME280;30022;55.846;37.340;2022-10-31T11:32:16;46961.84;;;-143.51;23.44
44309;BME280;30022;55.846;37.340;2022-10-31T11:34:43;46957.88;;;-143.51;23.32
44309;BME280;30022;55.846;37.340;2022-10-31T11:37:22;46967.75;;;-143.51;23.28
44309;BME280;30022;55.846;37.340;2022-10-31T11:39:53;46892.72;;;-143.51;23.55
44309;BME280;30022;55.846;37.340;2022-10-31T11:42:26;46981.59;;;-143.51;23.25
44309;BME280;30022;55.846;37.340;2022-10-31T11:44:53;46967.75;;;-143.51;23.25
44309;BME280;30022;55.846;37.340;2022-10-31T11:47:27;46965.78;;;-143.51;23.11
44309;BME280;30022;55.846;37.340;2022-10-31T11:49:53;47017.13;;;-143.51;22.94
44309;BME280;30022;55.846;37.340;2022-10-31T11:52:21;47005.28;;;-143.51;23.10
44309;BME280;30022;55.846;37.340;2022-10-31T11:57:28;47013.19;;;-143.51;22.96
44309;BME280;30022;55.846;37.340;2022-10-31T11:59:56;46987.50;;;-143.51;23.02
44309;BME280;30022;55.846;37.340;2022-10-31T12:02:23;47019.09;;;-143.51;22.96
44309;BME280;30022;55.846;37.340;2022-10-31T12:04:52;47025.03;;;-143.51;22.87
44309;BME280;30022;55.846;37.340;2022-10-31T12:07:23;47036.88;;;-143.51;22.85
44309;BME280;30022;55.846;37.340;2022-10-31T12:09:49;47011.22;;;-143.51;22.84
44309;BME280;30022;55.846;37.340;2022-10-31T12:15:50;47007.25;;;-143.51;22.84
44309;BME280;30022;55.846;37.340;2022-10-31T12:18:09;46969.72;;;-143.51;23.17
44309;BME280;30022;55.846;37.340;2022-10-31T12:23:18;47027.00;;;-143.51;23.02
44309;BME280;30022;55.846;37.340;2022-10-31T12:31:20;46948.00;;;-143.51;23.10
44309;BME280;30022;55.846;37.340;2022-10-31T12:41:46;47005.28;;;-143.51;23.27
44309;BME280;30022;55.846;37.340;2022-10-31T12:46:50;46953.94;;;-143.51;23.48
44309;BME280;30022;55.846;37.340;2022-10-31T12:59:34;47009.22;;;-143.51;23.28
44309;BME280;30022;55.846;37.340;2022-10-31T13:07:00;46936.16;;;-143.51;23.22
44309;BME280;30022;55.846;37.340;2022-10-31T13:09:32;46949.97;;;-143.51;22.95
44309;BME280;30022;55.846;37.340;2022-10-31T13:12:01;46949.97;;;-143.51;23.23
44309;BME280;30022;55.846;37.340;2022-10-31T13:14:37;46942.09;;;-143.51;22.98
44309;BME280;30022;55.846;37.340;2022-10-31T13:17:04;46936.16;;;-143.51;23.04
44309;BME280;30022;55.846;37.340;2022-10-31T13:19:38;46995.41;;;-143.51;23.00
44309;BME280;30022;55.846;37.340;2022-10-31T13:22:18;47001.34;;;-143.51;23.18
44309;BME280;30022;55.846;37.340;2022-10-31T13:30:15;46977.63;;;-143.51;23.31
44309;BME280;30022;55.846;37.340;2022-10-31T13:32:44;46989.47;;;-143.51;23.10
44309;BME280;30022;55.846;37.340;2022-10-31T13:35:14;46946.03;;;-143.51;23.15
44309;BME280;30022;55.846;37.340;2022-10-31T13:37:43;46906.53;;;-143.51;23.24
44309;BME280;30022;55.846;37.340;2022-10-31T13:40:24;46932.22;;;-143.51;23.09
44309;BME280;30022;55.846;37.340;2022-10-31T13:45:24;46951.97;;;-143.51;23.18
44309;BME280;30022;55.846;37.340;2022-10-31T13:47:57;46957.88;;;-143.51;23.14
44309;BME280;30022;55.846;37.340;2022-10-31T13:52:48;46928.25;;;-143.51;23.04
44309;BME280;30022;55.846;37.340;2022-10-31T13:57:58;46884.81;;;-143.51;23.35
44309;BME280;30022;55.846;37.340;2022-10-31T14:00:25;46914.44;;;-143.51;23.27
44309;BME280;30022;55.846;37.340;2022-10-31T14:02:53;46867.03;;;-143.51;23.86
44309;BME280;30022;55.846;37.340;2022-10-31T14:07:50;46930.22;;;-143.51;23.66
44309;BME280;30022;55.846;37.340;2022-10-31T14:12:46;46902.59;;;-143.51;23.62
44309;BME280;30022;55.846;37.340;2022-10-31T14:15:16;46959.84;;;-143.51;23.04
44309;BME280;30022;55.846;37.340;2022-10-31T14:17:47;46928.25;;;-143.51;23.39
44309;BME280;30022;55.846;37.340;2022-10-31T14:22:41;46957.88;;;-143.51;23.33
44309;BME280;30022;55.846;37.340;2022-10-31T14:27:51;46955.91;;;-143.51;23.31
44309;BME280;30022;55.846;37.340;2022-10-31T14:30:19;46955.91;;;-143.51;23.15
44309;BME280;30022;55.846;37.340;2022-10-31T14:32:58;46936.16;;;-143.51;23.05
44309;BME280;30022;55.846;37.340;2022-10-31T14:35:36;46942.09;;;-143.51;23.05
44309;BME280;30022;55.846;37.340;2022-10-31T14:38:18;46959.84;;;-143.51;23.19
44309;BME280;30022;55.846;37.340;2022-10-31T14:51:13;46906.53;;;-143.51;23.43
44309;BME280;30022;55.846;37.340;2022-10-31T14:53:49;46857.16;;;-143.51;23.72
44309;BME280;30022;55.846;37.340;2022-10-31T14:56:23;46914.44;;;-143.51;23.45
44309;BME280;30022;55.846;37.340;2022-10-31T14:58:50;46878.88;;;-143.51;23.42
44309;BME280;30022;55.846;37.340;2022-10-31T15:01:26;46839.38;;;-143.51;23.70
44309;BME280;30022;55.846;37.340;2022-10-31T15:03:54;46869.00;;;-143.51;23.61
44309;BME280;30022;55.846;37.340;2022-10-31T15:06:22;46825.56;;;-143.51;23.85
44309;BME280;30022;55.846;37.340;2022-10-31T15:08:50;46865.06;;;-143.51;23.46
44309;BME280;30022;55.846;37.340;2022-10-31T15:11:17;46932.22;;;-143.51;23.17
44309;BME280;30022;55.846;37.340;2022-10-31T15:13:44;46869.00;;;-143.51;23.49
44309;BME280;30022;55.846;37.340;2022-10-31T15:16:11;46900.59;;;-143.51;23.48
44309;BME280;30022;55.846;37.340;2022-10-31T15:18:38;46869.00;;;-143.51;23.33
44309;BME280;30022;55.846;37.340;2022-10-31T15:21:09;46906.53;;;-143.51;23.19
44309;BME280;30022;55.846;37.340;2022-10-31T15:23:35;46880.84;;;-143.51;23.58
44309;BME280;30022;55.846;37.340;2022-10-31T15:26:02;46845.31;;;-143.51;23.69
44309;BME280;30022;55.846;37.340;2022-10-31T15:28:29;46878.88;;;-143.51;23.69
44309;BME280;30022;55.846;37.340;2022-10-31T15:30:57;46855.19;;;-143.51;23.43
44309;BME280;30022;55.846;37.340;2022-10-31T15:33:27;46863.09;;;-143.51;23.38
44309;BME280;30022;55.846;37.340;2022-10-31T15:35:54;46882.84;;;-143.51;23.46